FW6553 Weather Reports


Display with metric or nautical units.
time (UTC)temp
F
wind
direction
speed
MPH
gust
MPH
rain 1hr
in
rain 24hr
in
rain mn
in
humidity
%
barometer
mb
20210124125527 32 1 0.0 1.0 0.00 0.00 0.00 87 1011.1
20210124124530 32 1 0.0 0.0 0.00 0.00 0.00 87 1011.2
20210124123525 32 1 0.0 2.0 0.00 0.00 0.00 87 1011.4
20210124122524 32 26 0.0 1.0 0.00 0.00 0.00 86 1011.5
20210124121542 32 359 0.0 0.0 0.00 0.00 0.00 86 1011.5
20210124120525 32 359 0.0 1.0 0.00 0.00 0.00 86 1011.5
20210124115525 32 147 0.0 0.0 0.00 0.00 0.00 85 1011.6
20210124114531 32 146 0.0 1.0 0.00 0.00 0.00 85 1011.9
20210124113527 33 119 0.0 2.0 0.00 0.00 0.00 84 1012.0
20210124112531 33 138 2.0 3.0 0.00 0.00 0.00 84 1012.2
20210124111540 33 121 0.0 1.0 0.00 0.00 0.00 83 1012.4
20210124110530 33 166 0.0 4.0 0.00 0.00 0.00 83 1012.5
20210124105525 34 131 0.0 2.0 0.00 0.00 0.00 81 1012.7
20210124104559 34 148 0.0 4.0 0.00 0.00 0.00 79 1012.8
20210124103530 36 139 1.0 5.0 0.00 0.00 0.00 76 1013.1
20210124102526 36 343 0.0 3.0 0.00 0.00 0.00 79 1013.2
20210124101525 35 312 0.0 2.0 0.00 0.00 0.00 79 1013.2
20210124100527 36 186 1.0 5.0 0.00 0.00 0.00 79 1013.3
20210124095526 36 148 1.0 4.0 0.00 0.00 0.00 78 1013.4
20210124094543 36 179 1.0 4.0 0.00 0.00 0.00 78 1013.4
20210124093544 36 217 8.0 8.0 0.00 0.00 0.00 78 1013.5
20210124092530 36 214 0.0 3.0 0.00 0.00 0.00 79 1013.6
20210124091529 36 172 0.0 1.0 0.00 0.00 0.00 79 1013.6
20210124090525 36 198 2.0 8.0 0.00 0.00 0.00 79 1013.7
20210124085530 36 231 0.0 4.0 0.00 0.00 0.00 80 1013.8
20210124084525 35 235 0.0 7.0 0.00 0.00 0.00 81 1014.0
20210124083525 34 226 0.0 6.0 0.00 0.00 0.00 86 1014.1
20210124082525 32 217 0.0 2.0 0.00 0.00 0.00 86 1014.2
20210124081527 32 326 0.0 5.0 0.00 0.00 0.00 86 1014.3
20210124080531 34 288 0.0 13.0 0.00 0.00 0.00 87 1014.4
20210124075544 31 217 1.0 4.0 0.00 0.00 0.01 93 1014.5
20210124074525 29 9 1.0 2.0 0.00 0.00 0.01 92 1014.8
20210124073525 29 143 0.0 3.0 0.00 0.00 0.01 93 1014.9
20210124072525 28 1 0.0 1.0 0.00 0.00 0.01 92 1014.9
20210124071542 28 60 0.0 1.0 0.00 0.00 0.01 91 1014.9
20210124070535 29 339 0.0 4.0 0.00 0.00 0.01 92 1014.9
20210124065526 29 56 2.0 2.0 0.00 0.00 0.01 91 1015.0
20210124064527 30 353 0.0 2.0 0.00 0.00 0.01 91 1015.1
20210124063530 30 250 0.0 1.0 0.00 0.00 0.01 91 1015.2
20210124062525 30 113 1.0 6.0 0.00 0.00 0.01 92 1015.4
20210124061537 30 350 1.0 6.0 0.00 0.00 0.01 91 1015.5
20210124060527 29 132 4.0 5.0 0.00 0.00 0.01 92 1015.7
20210124055527 29 111 2.0 4.0 0.00 0.00 0.01 92 1015.9
20210124054528 29 198 2.0 3.0 0.00 0.00 0.01 93 1015.9
20210124053530 29 210 0.0 3.0 0.00 0.00 0.01 92 1016.0
20210124052536 29 121 0.0 1.0 0.00 0.00 0.01 93 1015.9
20210124051530 29 32 0.0 1.0 0.00 0.00 0.01 92 1015.9
20210124050525 29 145 0.0 1.0 0.00 0.00 0.01 92 1016.0
20210124045532 30 146 0.0 0.0 0.00 0.00 0.01 92 1016.0
20210124044528 30 145 0.0 3.0 0.00 0.00 0.01 92 1016.2
20210124043525 29 152 2.0 6.0 0.00 0.00 0.01 92 1016.2
20210124042534 29 200 2.0 4.0 0.00 0.00 0.01 92 1016.4
20210124041528 29 159 3.0 3.0 0.00 0.00 0.01 92 1016.5
20210124040528 29 13 0.0 1.0 0.00 0.00 0.01 92 1017.0
20210124035527 29 132 0.0 1.0 0.00 0.00 0.01 91 1017.1
20210124034533 30 200 0.0 2.0 0.00 0.00 0.01 91 1017.0
20210124033529 30 159 2.0 5.0 0.00 0.00 0.01 92 1016.9
20210124032526 30 214 0.0 1.0 0.00 0.00 0.01 91 1017.1
20210124031540 30 142 0.0 4.0 0.00 0.00 0.01 92 1017.4
20210124030526 30 200 3.0 3.0 0.00 0.00 0.01 91 1017.6
20210124025527 30 158 0.0 1.0 0.00 0.00 0.01 90 1017.8
20210124024527 30 156 0.0 3.0 0.00 0.00 0.01 91 1018.0
20210124023526 30 145 1.0 2.0 0.00 0.00 0.01 90 1018.0
20210124022526 30 162 0.0 2.0 0.00 0.00 0.01 90 1017.9
20210124021533 31 163 1.0 4.0 0.00 0.00 0.01 90 1018.0
20210124020525 31 162 0.0 4.0 0.00 0.00 0.01 89 1018.1
20210124015525 31 165 0.0 3.0 0.00 0.00 0.01 88 1018.0
20210124014526 32 252 0.0 1.0 0.00 0.00 0.01 88 1017.9
20210124013525 32 154 1.0 1.0 0.00 0.00 0.01 88 1018.1
20210124012525 32 215 0.0 1.0 0.00 0.00 0.01 87 1017.9
20210124011526 32 170 0.0 3.0 0.00 0.00 0.01 87 1018.0
20210124010526 32 210 0.0 1.0 0.00 0.00 0.01 86 1018.1
20210124005531 33 215 0.0 3.0 0.00 0.00 0.01 85 1018.2
20210124004525 35 134 0.0 2.0 0.00 0.00 0.01 82 1018.2
20210124003532 37 204 0.0 0.0 0.00 0.00 0.01 78 1018.2
20210124002526 39 194 0.0 1.0 0.00 0.00 0.01 75 1018.3
20210124001535 40 4 0.0 0.0 0.00 0.00 0.01 75 1018.3
20210124000534 40 4 0.0 2.0 0.00 0.00 0.01 74 1018.4
20210123235527 40 5 0.0 1.0 0.00 0.00 0.01 73 1018.3
20210123234536 41 11 1.0 3.0 0.00 0.00 0.01 72 1018.4
20210123233534 41 18 0.0 2.0 0.00 0.00 0.01 72 1018.4
20210123232526 40 8 0.0 2.0 0.00 0.00 0.01 73 1018.3
20210123231527 40 358 0.0 2.0 0.00 0.00 0.01 73 1018.5
20210123230529 40 44 2.0 4.0 0.00 0.00 0.01 73 1018.4
20210123225530 40 32 0.0 5.0 0.00 0.00 0.01 73 1018.6
20210123224525 41 40 1.0 4.0 0.00 0.00 0.01 72 1018.4
20210123223528 42 14 0.0 1.0 0.00 0.00 0.01 70 1018.6
20210123222536 41 209 0.0 1.0 0.00 0.00 0.01 72 1018.4
20210123221530 40 4 0.0 2.0 0.00 0.00 0.01 72 1018.6
20210123220534 40 315 0.0 3.0 0.00 0.00 0.00 74 1018.6
20210123215532 39 351 0.0 1.0 0.00 0.00 0.00 75 1018.6
20210123214542 39 46 0.0 1.0 0.00 0.00 0.00 75 1018.7
20210123213526 38 40 0.0 1.0 0.00 0.00 0.00 75 1018.9
20210123212536 38 300 0.0 1.0 0.00 0.00 0.00 76 1019.0
20210123211530 38 214 0.0 2.0 0.00 0.00 0.00 77 1019.3
20210123210547 38 289 0.0 1.0 0.00 0.00 0.00 77 1019.4
20210123205534 38 280 0.0 1.0 0.00 0.00 0.00 78 1019.4
20210123204543 37 259 0.0 1.0 0.00 0.00 0.00 79 1019.5
20210123203536 36 250 0.0 1.0 0.00 0.00 0.00 79 1019.6
20210123202600 36 27 0.0 1.0 0.00 0.00 0.00 80 1019.6
20210123201530 36 44 0.0 1.0 0.00 0.00 0.00 81 1020.0
20210123200558 36 212 0.0 1.0 0.00 0.00 0.00 83 1020.1
20210123195558 35 254 0.0 2.0 0.00 0.00 0.00 83 1020.2
20210123194528 34 120 0.0 1.0 0.00 0.00 0.00 86 1020.3
20210123193527 34 61 0.0 2.0 0.00 0.00 0.00 87 1020.5
20210123192530 33 46 0.0 3.0 0.00 0.00 0.00 88 1020.6
20210123191538 32 40 0.0 3.0 0.00 0.00 0.00 88 1020.7
20210123190527 32 46 1.0 4.0 0.00 0.00 0.00 89 1020.8
20210123185527 32 34 1.0 2.0 0.00 0.00 0.00 89 1021.0
20210123184537 32 19 0.0 0.0 0.00 0.00 0.00 90 1021.1
20210123183530 31 19 0.0 1.0 0.00 0.00 0.00 90 1021.0
20210123182530 32 30 0.0 0.0 0.00 0.00 0.00 91 1020.9
20210123181624 31 30 0.0 0.0 0.00 0.00 0.00 93 1021.1
20210123180526 30 30 0.0 0.0 0.00 0.00 0.00 92 1021.1
20210123175527 29 48 0.0 0.0 0.00 0.00 0.00 94 1021.1
20210123174537 29 47 0.0 1.0 0.00 0.00 0.00 94 1021.0
20210123173534 28 58 0.0 0.0 0.00 0.00 0.00 94 1021.0
20210123172533 28 99 0.0 0.0 0.00 0.00 0.00 94 1021.0
20210123171528 28 99 0.0 0.0 0.00 0.00 0.00 94 1020.8
20210123170526 28 98 0.0 0.0 0.00 0.00 0.00 95 1020.8
20210123165528 27 203 0.0 0.0 0.00 0.00 0.00 96 1020.8
20210123164531 27 203 0.0 0.0 0.00 0.00 0.00 96 1020.8
20210123163554 26 203 0.0 0.0 0.00 0.00 0.00 96 1020.6
20210123162535 23 203 0.0 0.0 0.00 0.00 0.00 96 1020.6
20210123161528 22 203 0.0 1.0 0.00 0.00 0.00 95 1020.5
20210123160528 23 203 1.0 1.0 0.00 0.00 0.00 95 1020.6
20210123155526 23 203 0.0 1.0 0.00 0.00 0.00 95 1020.6
20210123154534 23 203 0.0 1.0 0.00 0.00 0.00 96 1020.6
20210123153527 22 203 1.0 2.0 0.00 0.00 0.00 96 1020.5
20210123152531 22 219 1.0 1.0 0.00 0.00 0.00 95 1020.4
20210123151549 22 212 0.0 0.0 0.00 0.00 0.00 95 1020.3
20210123150530 22 212 0.0 0.0 0.00 0.00 0.00 95 1020.3
20210123145526 22 213 0.0 0.0 0.00 0.00 0.00 95 1020.2
20210123144540 23 212 0.0 1.0 0.00 0.00 0.00 95 1020.0
20210123143526 23 212 0.0 1.0 0.00 0.00 0.00 96 1020.0
20210123142527 23 212 0.0 0.0 0.00 0.00 0.00 95 1020.0
20210123141528 23 213 0.0 0.0 0.00 0.00 0.00 95 1019.9
20210123140536 23 221 0.0 0.0 0.00 0.00 0.00 95 1019.9
20210123135527 24 221 0.0 0.0 0.00 0.00 0.00 95 1019.6
20210123134542 24 221 0.0 0.0 0.00 0.00 0.00 95 1019.5
20210123133526 24 221 0.0 0.0 0.00 0.00 0.00 95 1019.5
20210123132527 24 220 0.0 0.0 0.00 0.00 0.00 96 1019.5
20210123131533 24 221 0.0 1.0 0.00 0.00 0.00 95 1019.4
20210123130527 24 183 0.0 0.0 0.00 0.00 0.00 95 1019.5